Time;durP1;ratioP1;P1;durP2;ratioP2;P2;SDS_P1;SDS_P2;PMS_P1;PMS_P2;Temp;Humidity;BMP_temperature;BMP_pressure;BME280_temperature;BME280_humidity;BME280_pressure;Samples;Min_cycle;Max_cycle;Signal;HPM_P1;HPM_P2
2022/11/04 00:01:41;;;;;;;19.02;7.57;;;;;;;9.78;77.97;94787.66;5122152;27;20193;-77
2022/11/04 00:04:10;;;;;;;19.55;8.55;;;;;;;9.77;78.53;94794.19;5118858;27;20205;-77
2022/11/04 00:06:38;;;;;;;18.77;8.20;;;;;;;9.81;78.20;94783.53;5122886;27;20614;-77
2022/11/04 00:09:06;;;;;;;19.63;9.15;;;;;;;9.82;78.12;94780.53;5126391;27;20276;-78
2022/11/04 00:14:17;;;;;;;18.20;8.32;;;;;;;9.72;78.67;94775.41;5126960;27;20212;-77
2022/11/04 00:28:41;;;;;;;22.40;8.02;;;;;;;9.53;78.75;94777.63;5110174;27;20233;-77
2022/11/04 00:30:28;;;;;;;8.45;4.75;;;;;;;9.48;80.19;94785.91;5126162;27;20193;-77
2022/11/04 00:35:41;;;;;;;9.70;5.20;;;;;;;9.29;80.03;94774.59;5091361;28;20225;-77
2022/11/04 00:38:07;;;;;;;11.63;4.95;;;;;;;9.41;80.65;94774.78;5092028;28;20202;-77
2022/11/04 00:40:34;;;;;;;5.30;3.60;;;;;;;9.41;79.28;94774.78;5091641;28;20643;-76
2022/11/04 00:43:01;;;;;;;5.28;3.55;;;;;;;9.24;78.90;94767.41;5120683;27;20645;-76
2022/11/04 00:45:28;;;;;;;8.55;3.80;;;;;;;9.10;80.05;94770.25;5120544;27;20685;-77
2022/11/04 00:47:54;;;;;;;4.47;3.20;;;;;;;9.16;79.76;94774.38;5116314;27;20193;-77
2022/11/04 00:50:21;;;;;;;10.25;4.43;;;;;;;9.13;80.27;94768.84;5121836;27;20193;-77
2022/11/04 00:52:49;;;;;;;10.18;3.97;;;;;;;9.12;80.87;94770.75;5132334;27;20192;-79
2022/11/04 00:55:16;;;;;;;7.75;4.00;;;;;;;9.11;80.89;94762.94;5121536;27;20225;-77
2022/11/04 00:57:43;;;;;;;8.15;4.10;;;;;;;9.11;80.61;94763.75;5129241;27;20213;-77
2022/11/04 01:00:11;;;;;;;7.63;3.67;;;;;;;9.16;80.94;94760.88;5121483;27;20270;-78
2022/11/04 01:02:38;;;;;;;9.07;3.90;;;;;;;9.06;80.79;94758.47;5125295;27;20674;-77
2022/11/04 01:05:05;;;;;;;9.40;3.65;;;;;;;9.04;81.45;94754.50;5122137;27;20230;-76
2022/11/04 01:07:32;;;;;;;6.18;3.63;;;;;;;9.15;81.42;94753.91;5117811;27;20262;-76
2022/11/04 01:10:00;;;;;;;9.98;4.05;;;;;;;8.98;80.40;94750.34;5120706;27;20736;-77
2022/11/04 01:12:30;;;;;;;5.38;3.80;;;;;;;8.91;81.14;94750.81;5125190;27;20240;-78
2022/11/04 01:14:56;;;;;;;8.60;4.05;;;;;;;9.03;80.78;94751.00;5123079;27;20227;-77
2022/11/04 01:17:23;;;;;;;15.35;4.22;;;;;;;8.93;80.38;94743.19;5113088;27;20247;-76
2022/11/04 01:19:50;;;;;;;9.88;3.60;;;;;;;8.91;80.98;94740.78;5124036;27;20204;-77
2022/11/04 01:22:17;;;;;;;6.45;3.90;;;;;;;8.91;81.17;94743.50;5112206;27;20194;-76
2022/11/04 01:24:44;;;;;;;9.68;4.05;;;;;;;8.95;80.56;94734.78;5123654;27;20680;-76
2022/11/04 01:27:12;;;;;;;11.65;4.53;;;;;;;8.86;81.21;94721.25;5124985;27;20217;-76
2022/11/04 01:29:39;;;;;;;10.15;3.97;;;;;;;8.78;81.55;94719.31;5097842;28;20547;-77
2022/11/04 01:32:06;;;;;;;3.10;2.75;;;;;;;8.80;81.64;94730.59;5116684;27;20719;-77
2022/11/04 01:34:32;;;;;;;17.75;8.43;;;;;;;8.74;81.88;94726.47;5131407;27;20201;-77
2022/11/04 01:36:59;;;;;;;18.77;8.25;;;;;;;8.77;81.63;94725.81;5111352;27;20212;-77
2022/11/04 01:39:26;;;;;;;12.55;7.80;;;;;;;8.90;81.36;94727.59;5111424;27;20317;-77
2022/11/04 01:41:53;;;;;;;17.38;8.00;;;;;;;8.82;81.29;94726.47;5124676;27;20206;-77
2022/11/04 01:44:55;;;;;;;17.13;8.40;;;;;;;8.52;82.19;94730.81;5124052;27;20318;-77
2022/11/04 01:47:27;;;;;;;16.38;8.80;;;;;;;8.57;82.17;94726.41;5038817;28;20603;-77
2022/11/04 01:49:57;;;;;;;14.10;8.43;;;;;;;8.45;82.80;94719.69;5086594;28;20201;-77
2022/11/04 01:52:29;;;;;;;16.50;8.50;;;;;;;8.55;82.59;94721.31;5124630;27;20197;-77
2022/11/04 01:55:01;;;;;;;8.90;4.72;;;;;;;8.53;82.70;94721.63;5105496;27;20217;-78
2022/11/04 01:57:34;;;;;;;9.15;3.80;;;;;;;8.42;82.64;94712.22;5116934;27;20246;-78
2022/11/04 02:00:06;;;;;;;7.20;3.97;;;;;;;8.50;82.99;94716.84;5121530;27;20284;-77
2022/11/04 02:02:33;;;;;;;11.63;4.40;;;;;;;8.50;82.50;94718.72;5127724;27;20316;-76
2022/11/04 02:05:00;;;;;;;11.20;4.45;;;;;;;8.46;82.63;94717.78;5120309;27;20703;-78
2022/11/04 02:07:28;;;;;;;9.57;3.97;;;;;;;8.39;82.83;94706.63;5123852;27;20204;-78
2022/11/04 02:09:55;;;;;;;7.07;3.42;;;;;;;8.38;83.24;94705.03;5120863;27;20204;-78
2022/11/04 02:15:08;;;;;;;18.60;9.32;;;;;;;8.46;83.44;94702.38;5117613;27;20232;-77
2022/11/04 02:18:03;;;;;;;14.48;8.30;;;;;;;8.37;83.38;94698.84;5130524;27;20196;-77
2022/11/04 02:20:44;;;;;;;18.52;9.40;;;;;;;8.08;84.29;94707.41;5116844;27;20635;-78
2022/11/04 02:23:30;;;;;;;6.57;3.95;;;;;;;8.21;84.73;94706.50;5129394;27;20180;-76
2022/11/04 02:26:40;;;;;;;12.10;4.47;;;;;;;8.22;84.74;94707.31;5105951;27;20363;-76
2022/11/04 02:29:19;;;;;;;17.83;8.65;;;;;;;8.20;85.35;94704.13;5104451;28;20236;-77
2022/11/04 02:31:54;;;;;;;8.13;3.90;;;;;;;8.19;85.10;94695.25;5116505;27;20294;-77
2022/11/04 02:34:30;;;;;;;6.63;4.10;;;;;;;8.06;85.31;94700.75;5131008;27;20196;-77
2022/11/04 02:37:05;;;;;;;16.70;8.43;;;;;;;8.12;85.71;94696.78;5111947;28;20609;-77
2022/11/04 02:39:41;;;;;;;18.17;9.75;;;;;;;8.26;85.24;94699.41;5122976;28;20192;-77
2022/11/04 02:42:17;;;;;;;23.20;10.02;;;;;;;8.26;85.02;94692.09;5097162;28;20205;-77
2022/11/04 02:44:50;;;;;;;14.63;8.95;;;;;;;8.29;84.70;94691.47;5125577;28;20708;-77
2022/11/04 02:47:21;;;;;;;16.30;8.90;;;;;;;8.09;84.73;94687.41;5120658;27;20197;-77
2022/11/04 02:49:55;;;;;;;17.65;9.55;;;;;;;8.16;84.61;94697.78;5114815;28;20196;-76
2022/11/04 02:52:28;;;;;;;14.27;7.82;;;;;;;7.97;85.10;94686.41;5116714;27;20201;-77
2022/11/04 02:55:00;;;;;;;18.10;9.00;;;;;;;7.95;85.69;94700.19;5104241;28;20598;-76
2022/11/04 02:57:31;;;;;;;19.48;9.32;;;;;;;8.03;85.56;94693.25;5115179;27;20667;-78
2022/11/04 03:00:03;;;;;;;7.18;3.17;;;;;;;8.05;85.59;94691.06;5109661;28;20193;-77
2022/11/04 03:02:35;;;;;;;8.60;3.88;;;;;;;8.00;85.24;94691.97;5120537;28;20193;-77
2022/11/04 03:05:05;;;;;;;6.20;3.22;;;;;;;8.07;85.28;94694.22;5100071;28;20596;-77
2022/11/04 03:07:35;;;;;;;9.18;3.58;;;;;;;7.89;85.51;94687.97;5123377;28;20206;-77
2022/11/04 03:10:06;;;;;;;7.88;4.15;;;;;;;7.89;85.82;94703.34;5108852;28;20197;-77
2022/11/04 03:12:40;;;;;;;7.28;3.70;;;;;;;7.75;86.38;94681.84;5123555;28;20345;-76
2022/11/04 03:15:19;;;;;;;4.38;3.33;;;;;;;7.88;86.02;94686.34;5126410;27;20204;-77
2022/11/04 03:17:56;;;;;;;6.95;3.97;;;;;;;7.84;86.16;94694.25;5110037;27;20197;-78
2022/11/04 03:20:27;;;;;;;5.65;3.55;;;;;;;7.72;86.51;94696.72;5120093;27;20196;-78
2022/11/04 03:22:58;;;;;;;10.50;3.90;;;;;;;7.78;86.80;94687.44;5133495;27;20223;-78
2022/11/04 03:25:28;;;;;;;20.30;9.20;;;;;;;7.79;86.88;94699.78;5119877;27;20196;-78
2022/11/04 03:28:02;;;;;;;15.70;9.48;;;;;;;7.74;87.16;94701.81;5122118;27;20286;-77
2022/11/04 03:30:38;;;;;;;17.77;9.60;;;;;;;7.72;87.11;94699.44;5127039;27;20416;-77
2022/11/04 03:33:12;;;;;;;16.45;8.40;;;;;;;7.66;86.88;94679.06;5126963;27;20185;-78
2022/11/04 03:35:39;;;;;;;21.13;10.35;;;;;;;7.76;87.33;94700.41;5113204;28;20648;-78
2022/11/04 03:38:06;;;;;;;17.17;9.48;;;;;;;7.78;87.43;94692.81;5115451;27;20193;-77
2022/11/04 03:40:33;;;;;;;16.85;9.40;;;;;;;7.83;87.30;94698.06;5124610;27;20205;-78
2022/11/04 03:43:09;;;;;;;17.38;9.95;;;;;;;7.71;87.03;94692.44;5128973;27;20691;-78
2022/11/04 03:45:39;;;;;;;18.63;9.07;;;;;;;7.59;87.78;94700.28;5123222;27;20615;-77
2022/11/04 03:48:06;;;;;;;17.55;9.68;;;;;;;7.55;87.47;94683.13;5112819;28;20193;-77
2022/11/04 03:50:40;;;;;;;18.55;9.30;;;;;;;7.60;87.62;94690.31;5113080;28;20247;-77
2022/11/04 03:53:08;;;;;;;16.83;8.85;;;;;;;7.44;87.52;94687.19;5126725;27;20560;-77
2022/11/04 03:55:46;;;;;;;21.00;9.25;;;;;;;7.59;86.93;94686.81;5099642;28;20680;-76
2022/11/04 03:58:23;;;;;;;18.48;8.77;;;;;;;7.51;88.21;94684.06;5107632;27;20192;-77
2022/11/04 04:01:00;;;;;;;14.93;9.38;;;;;;;7.65;87.51;94682.91;5130324;27;20210;-77
2022/11/04 04:03:33;;;;;;;17.95;9.02;;;;;;;7.65;88.09;94688.28;5122815;27;20218;-77
2022/11/04 04:06:05;;;;;;;15.35;8.85;;;;;;;7.38;87.20;94681.09;5119442;27;20886;-78
2022/11/04 04:08:39;;;;;;;18.10;8.93;;;;;;;7.39;87.61;94669.22;5121271;27;20194;-78
2022/11/04 04:11:12;;;;;;;21.33;9.90;;;;;;;7.41;87.94;94674.31;5125701;27;20205;-77
2022/11/04 04:13:45;;;;;;;16.48;8.77;;;;;;;7.45;88.41;94678.00;5125878;27;20673;-78
2022/11/04 04:16:18;;;;;;;17.00;9.27;;;;;;;7.50;88.57;94683.28;5121019;27;20221;-77
2022/11/04 04:18:49;;;;;;;19.23;9.35;;;;;;;7.48;88.52;94682.78;5116407;27;20217;-77
2022/11/04 04:21:21;;;;;;;19.83;10.50;;;;;;;7.51;89.60;94682.16;5122453;27;20189;-77
2022/11/04 04:29:22;;;;;;;15.65;9.07;;;;;;;7.38;88.64;94683.03;5101125;28;20328;-78
2022/11/04 04:31:56;;;;;;;17.17;9.38;;;;;;;7.27;89.28;94670.88;5125480;27;20317;-77
2022/11/04 04:34:25;;;;;;;34.80;17.08;;;;;;;7.30;89.87;94683.75;5123122;27;20184;-78
2022/11/04 04:37:00;;;;;;;20.20;9.95;;;;;;;7.25;90.26;94681.94;5118088;27;20292;-78
2022/11/04 04:45:22;;;;;;;16.48;8.88;;;;;;;7.10;89.20;94677.75;5068320;28;20214;-80
2022/11/04 04:47:51;;;;;;;21.92;10.80;;;;;;;7.12;89.83;94680.91;5066636;28;20655;-79
2022/11/04 04:50:20;;;;;;;22.38;10.13;;;;;;;7.11;89.35;94684.69;5078687;28;20202;-79
2022/11/04 04:52:50;;;;;;;9.23;3.92;;;;;;;6.98;90.02;94679.34;5115245;27;20208;-79
2022/11/04 04:55:17;;;;;;;14.18;5.20;;;;;;;7.06;90.52;94675.94;5121281;27;20668;-79
2022/11/04 04:57:44;;;;;;;6.07;4.47;;;;;;;7.19;90.47;94677.78;5129432;27;20205;-80
2022/11/04 05:00:15;;;;;;;8.68;3.25;;;;;;;7.24;89.96;94682.28;5115618;27;20197;-80
2022/11/04 05:02:42;;;;;;;6.43;4.38;;;;;;;7.19;89.51;94674.31;5106727;27;20209;-80
2022/11/04 05:05:11;;;;;;;5.60;3.80;;;;;;;7.07;90.17;94683.72;5119492;27;20197;-78
2022/11/04 05:07:39;;;;;;;16.35;5.65;;;;;;;7.06;89.82;94686.72;5097338;28;20210;-78
2022/11/04 05:10:06;;;;;;;6.65;3.70;;;;;;;7.03;90.37;94684.63;5123621;27;20197;-78
2022/11/04 05:15:15;;;;;;;10.85;5.18;;;;;;;7.29;90.82;94684.84;5124149;27;20197;-78
2022/11/04 05:17:42;;;;;;;5.32;3.83;;;;;;;7.44;90.83;94684.47;5110278;28;20205;-78
2022/11/04 05:20:12;;;;;;;12.07;3.83;;;;;;;7.58;89.70;94687.91;5111325;28;20262;-80
2022/11/04 05:22:38;;;;;;;9.45;3.83;;;;;;;7.75;88.84;94685.34;5108575;28;20198;-78
2022/11/04 05:25:06;;;;;;;9.07;3.83;;;;;;;7.95;88.35;94688.59;5121791;27;20655;-79
2022/11/04 05:27:33;;;;;;;11.55;5.45;;;;;;;8.19;87.93;94684.47;5099505;28;20311;-80
2022/11/04 05:29:59;;;;;;;3.67;3.15;;;;;;;8.49;86.43;94685.53;5109463;28;20206;-79
2022/11/04 05:32:29;;;;;;;13.23;5.65;;;;;;;8.73;84.34;94685.16;5110477;28;20240;-80
2022/11/04 05:34:56;;;;;;;9.73;4.53;;;;;;;9.23;82.72;94692.84;5112819;27;20211;-79
2022/11/04 05:37:24;;;;;;;9.55;4.57;;;;;;;9.94;79.98;94690.59;5108561;27;20242;-79
2022/11/04 05:39:51;;;;;;;14.98;6.13;;;;;;;10.50;77.66;94696.81;5107389;28;20263;-79
2022/11/04 05:42:18;;;;;;;12.00;5.40;;;;;;;11.07;74.46;94690.94;5109684;28;20657;-79
2022/11/04 05:44:45;;;;;;;36.83;15.23;;;;;;;11.48;72.94;94687.47;5109543;28;20457;-80
2022/11/04 05:47:11;;;;;;;11.20;6.28;;;;;;;11.93;71.21;94693.78;5108927;28;20202;-78
2022/11/04 05:49:38;;;;;;;16.38;6.13;;;;;;;12.51;68.95;94702.75;5109599;28;20206;-77
2022/11/04 05:52:05;;;;;;;11.93;6.00;;;;;;;12.97;67.35;94696.09;5109699;28;20201;-76
2022/11/04 05:54:34;;;;;;;14.20;6.05;;;;;;;13.04;67.28;94687.34;5105462;28;20251;-77
2022/11/04 05:57:00;;;;;;;10.52;4.22;;;;;;;13.24;65.73;94702.00;5088993;28;20230;-77
2022/11/04 05:59:27;;;;;;;11.35;5.10;;;;;;;13.56;65.72;94702.94;5089050;28;20718;-79
2022/11/04 06:01:59;;;;;;;15.52;5.60;;;;;;;13.51;64.93;94699.34;5100510;28;20202;-78
2022/11/04 06:04:29;;;;;;;11.07;6.07;;;;;;;13.57;64.60;94693.63;5109665;28;20288;-78
2022/11/04 06:06:56;;;;;;;15.90;6.13;;;;;;;13.79;64.77;94698.56;5109452;28;20201;-79
2022/11/04 06:09:37;;;;;;;13.30;6.13;;;;;;;13.72;64.24;94707.31;5109980;28;20479;-79
2022/11/04 06:12:09;;;;;;;10.50;5.57;;;;;;;13.91;63.67;94697.72;5109636;28;20247;-79
2022/11/04 06:14:36;;;;;;;10.50;6.57;;;;;;;14.17;63.54;94685.22;5108877;28;20250;-79
2022/11/04 06:17:04;;;;;;;16.77;7.03;;;;;;;13.79;63.14;94695.84;5120678;27;20243;-79
2022/11/04 06:19:39;;;;;;;18.65;8.88;;;;;;;14.39;63.24;94696.69;5098535;28;20381;-79
2022/11/04 06:22:11;;;;;;;12.25;6.40;;;;;;;14.46;62.33;94703.16;5121993;27;20652;-77
2022/11/04 06:24:38;;;;;;;10.07;5.93;;;;;;;14.71;61.51;94697.53;5109272;28;20205;-80
2022/11/04 06:27:08;;;;;;;19.55;11.63;;;;;;;13.93;62.98;94696.25;5103927;28;20258;-79
2022/11/04 06:29:40;;;;;;;18.88;7.82;;;;;;;14.03;64.07;94695.75;5101091;28;20213;-78
2022/11/04 06:32:06;;;;;;;12.65;7.05;;;;;;;13.89;64.63;94698.06;5109065;28;20602;-78
2022/11/04 06:34:33;;;;;;;11.15;5.80;;;;;;;13.80;65.46;94697.44;5121781;27;20254;-79
2022/11/04 06:37:03;;;;;;;13.95;7.60;;;;;;;13.46;65.89;94691.41;5115269;27;20236;-78
2022/11/04 06:39:32;;;;;;;24.13;12.50;;;;;;;13.35;67.28;94695.75;5102374;27;20209;-81
2022/11/04 06:42:02;;;;;;;20.40;10.98;;;;;;;13.25;68.15;94703.59;5095280;28;20205;-81
2022/11/04 06:44:33;;;;;;;21.13;7.18;;;;;;;13.05;68.54;94710.69;5108728;28;20205;-80
2022/11/04 06:47:00;;;;;;;13.02;6.20;;;;;;;12.74;70.05;94712.03;5113173;27;20289;-82
2022/11/04 06:49:27;;;;;;;15.45;7.55;;;;;;;12.84;69.65;94710.03;5097165;27;20229;-80
2022/11/04 06:52:00;;;;;;;13.13;7.53;;;;;;;12.72;69.81;94708.06;5115124;27;20282;-81
2022/11/04 06:54:26;;;;;;;15.13;6.80;;;;;;;12.45;70.56;94709.50;5100598;28;20262;-78
2022/11/04 06:56:53;;;;;;;15.43;7.53;;;;;;;12.17;71.19;94698.47;5112793;28;20445;-78
2022/11/04 06:59:23;;;;;;;15.05;8.27;;;;;;;12.15;72.22;94713.53;5113340;27;20201;-77
2022/11/04 07:01:51;;;;;;;15.65;7.38;;;;;;;12.21;71.96;94693.97;5112818;28;20567;-78
2022/11/04 07:04:23;;;;;;;14.13;7.85;;;;;;;12.26;71.99;94701.13;5112701;28;20582;-77
2022/11/04 07:06:52;;;;;;;26.15;8.30;;;;;;;12.53;70.88;94699.69;5112584;27;20699;-79
2022/11/04 07:09:19;;;;;;;13.77;7.65;;;;;;;12.67;70.51;94694.72;5118528;27;20254;-78
2022/11/04 07:11:48;;;;;;;19.60;7.72;;;;;;;12.72;70.47;94692.56;5108373;27;20206;-78
2022/11/04 07:14:16;;;;;;;21.80;8.52;;;;;;;12.82;70.46;94688.63;5092945;28;20202;-79
2022/11/04 07:16:43;;;;;;;22.27;14.10;;;;;;;12.81;69.91;94693.25;5105302;28;20229;-80
2022/11/04 07:19:11;;;;;;;13.77;8.52;;;;;;;12.60;70.60;94689.03;5112698;28;20551;-79
2022/11/04 07:21:38;;;;;;;17.88;8.20;;;;;;;12.94;69.84;94682.38;5112651;28;20258;-79
2022/11/04 07:24:08;;;;;;;28.30;14.75;;;;;;;12.84;69.98;94682.84;5092131;28;20204;-79
2022/11/04 07:26:43;;;;;;;15.02;8.48;;;;;;;12.99;69.54;94679.41;5105824;28;20213;-79
2022/11/04 07:29:12;;;;;;;15.82;8.20;;;;;;;12.70;70.33;94664.16;5111795;28;20699;-80
2022/11/04 07:31:39;;;;;;;16.70;7.97;;;;;;;12.66;71.08;94674.91;5112251;28;20716;-80
2022/11/04 07:34:08;;;;;;;24.75;9.40;;;;;;;12.48;71.94;94670.81;5112696;28;20205;-81
2022/11/04 07:36:37;;;;;;;16.73;8.48;;;;;;;12.45;72.11;94661.41;5114211;27;20252;-81
2022/11/04 07:39:05;;;;;;;16.98;9.30;;;;;;;12.63;71.45;94672.06;5114010;27;20291;-81
2022/11/04 07:41:34;;;;;;;15.35;8.57;;;;;;;12.64;71.50;94647.28;5094956;28;20202;-80
2022/11/04 07:44:04;;;;;;;18.05;7.68;;;;;;;12.71;71.33;94652.16;5112299;28;20643;-79
2022/11/04 07:46:36;;;;;;;16.10;7.22;;;;;;;12.53;71.53;94659.72;5115806;27;20217;-79
2022/11/04 07:49:03;;;;;;;27.85;14.80;;;;;;;12.67;71.86;94654.75;5107807;27;20599;-79
2022/11/04 07:51:32;;;;;;;25.70;12.85;;;;;;;12.80;71.01;94656.34;5111224;28;20205;-79
2022/11/04 07:54:01;;;;;;;33.80;16.85;;;;;;;13.18;70.12;94655.19;5111605;28;20190;-79
2022/11/04 07:56:27;;;;;;;21.50;9.05;;;;;;;13.18;69.69;94647.03;5091280;28;20283;-81
2022/11/04 07:58:54;;;;;;;17.25;9.45;;;;;;;13.37;69.76;94647.22;5090000;28;20689;-80
2022/11/04 08:01:23;;;;;;;21.83;10.95;;;;;;;13.48;69.01;94653.75;5097309;28;20251;-82
2022/11/04 08:03:49;;;;;;;18.70;9.63;;;;;;;13.28;69.66;94646.53;5111155;28;20610;-79
2022/11/04 08:06:18;;;;;;;21.42;9.52;;;;;;;13.43;69.34;94634.94;5111648;28;20210;-79
2022/11/04 08:08:46;;;;;;;23.25;11.10;;;;;;;13.49;69.09;94649.91;5111658;28;20206;-78
2022/11/04 08:11:17;;;;;;;24.92;9.43;;;;;;;13.74;68.73;94633.47;5111111;28;20247;-81
2022/11/04 08:13:45;;;;;;;22.42;10.95;;;;;;;14.10;67.82;94641.44;5111663;28;20592;-81
2022/11/04 08:16:14;;;;;;;19.60;9.25;;;;;;;14.11;67.29;94637.59;5119004;27;20270;-82
2022/11/04 08:18:41;;;;;;;24.23;9.23;;;;;;;13.86;68.00;94636.13;5095492;28;20676;-80
2022/11/04 08:21:09;;;;;;;23.52;11.02;;;;;;;13.97;67.68;94626.31;5098360;28;20231;-78
2022/11/04 08:23:36;;;;;;;16.27;7.07;;;;;;;13.71;68.20;94629.50;5095910;28;20194;-80
2022/11/04 08:26:08;;;;;;;19.23;9.40;;;;;;;13.63;68.83;94624.22;5091095;28;20224;-80
2022/11/04 08:28:36;;;;;;;18.90;8.98;;;;;;;13.81;68.37;94606.41;5107667;28;20218;-79
2022/11/04 08:31:05;;;;;;;12.45;7.35;;;;;;;13.77;68.35;94628.13;5109362;28;20229;-81
2022/11/04 08:33:34;;;;;;;33.45;15.75;;;;;;;13.92;68.17;94618.41;5111508;28;20205;-78
2022/11/04 08:36:04;;;;;;;22.08;11.90;;;;;;;14.12;67.36;94606.47;5110860;28;20236;-81
2022/11/04 08:38:31;;;;;;;30.42;15.32;;;;;;;14.21;67.04;94614.50;5120070;27;20225;-79
2022/11/04 08:40:58;;;;;;;21.50;11.02;;;;;;;13.92;67.38;94604.00;5090623;28;20202;-79
2022/11/04 08:43:26;;;;;;;18.42;7.97;;;;;;;13.94;67.67;94610.66;5108544;28;20221;-79
2022/11/04 08:45:55;;;;;;;12.88;8.07;;;;;;;13.95;67.62;94614.97;5111152;28;20297;-78
2022/11/04 08:48:22;;;;;;;19.00;9.27;;;;;;;13.93;67.46;94609.09;5110413;28;20201;-79
2022/11/04 08:50:50;;;;;;;16.02;9.02;;;;;;;14.24;66.99;94609.13;5111153;28;20262;-81
2022/11/04 08:53:16;;;;;;;23.50;10.82;;;;;;;14.16;67.14;94596.47;5124232;27;20247;-78
2022/11/04 08:55:43;;;;;;;18.35;8.65;;;;;;;14.43;66.39;94596.75;5097094;28;20239;-77
2022/11/04 08:58:10;;;;;;;21.50;9.63;;;;;;;14.64;65.72;94583.63;5097929;28;20278;-78
2022/11/04 09:00:37;;;;;;;18.42;9.20;;;;;;;14.79;65.22;94588.28;5124736;27;20200;-79
2022/11/04 09:03:05;;;;;;;23.27;9.88;;;;;;;14.75;65.15;94586.63;5090624;28;20202;-77
2022/11/04 09:05:32;;;;;;;20.60;11.13;;;;;;;14.98;64.33;94575.84;5090982;28;20661;-79
2022/11/04 09:08:00;;;;;;;19.42;9.10;;;;;;;15.08;64.09;94581.50;5110426;28;20250;-79
2022/11/04 09:10:27;;;;;;;26.05;15.18;;;;;;;14.93;64.24;94568.72;5110386;27;20205;-79
2022/11/04 09:12:54;;;;;;;20.90;10.15;;;;;;;15.22;63.52;94559.19;5109402;28;20557;-80
2022/11/04 09:15:20;;;;;;;16.15;8.90;;;;;;;15.58;62.91;94555.28;5112166;27;20209;-78
2022/11/04 09:17:47;;;;;;;20.58;10.93;;;;;;;15.80;61.85;94560.00;5112737;27;20635;-80
2022/11/04 09:20:15;;;;;;;18.35;8.55;;;;;;;16.03;61.01;94554.53;5089592;28;20214;-78
2022/11/04 09:22:42;;;;;;;20.75;10.15;;;;;;;16.21;60.48;94547.44;5108881;27;20196;-79
2022/11/04 09:25:09;;;;;;;19.52;9.85;;;;;;;16.38;59.59;94542.66;5098448;27;20554;-78
2022/11/04 09:27:36;;;;;;;24.13;10.30;;;;;;;16.39;59.52;94539.53;5089362;28;20229;-82
2022/11/04 09:30:03;;;;;;;19.17;9.32;;;;;;;16.31;59.38;94544.09;5089903;28;20232;-80
2022/11/04 09:32:30;;;;;;;31.10;15.18;;;;;;;15.80;60.79;94540.09;5089498;28;20295;-81
2022/11/04 09:34:56;;;;;;;27.90;14.02;;;;;;;15.79;60.66;94530.31;5092458;28;20672;-78
2022/11/04 09:37:25;;;;;;;27.35;14.38;;;;;;;15.77;60.39;94527.16;5119686;27;20220;-79
2022/11/04 09:39:51;;;;;;;27.30;13.75;;;;;;;16.04;59.85;94533.47;5096366;27;20209;-79
2022/11/04 09:42:46;;;;;;;15.02;6.90;;;;;;;16.32;59.12;94526.53;5098556;28;20201;-80
2022/11/04 09:45:17;;;;;;;19.80;10.40;;;;;;;16.30;59.01;94520.66;5096313;28;20215;-80
2022/11/04 09:47:47;;;;;;;20.48;8.05;;;;;;;16.47;58.06;94518.56;5109565;28;20572;-80
2022/11/04 09:50:22;;;;;;;20.45;7.95;;;;;;;16.17;58.40;94513.78;5109074;28;20205;-78
2022/11/04 09:52:56;;;;;;;12.68;7.38;;;;;;;16.35;57.98;94501.22;5109833;28;20504;-81
2022/11/04 09:55:29;;;;;;;26.20;14.13;;;;;;;16.67;57.99;94500.94;5098654;28;20247;-81
2022/11/04 09:57:58;;;;;;;28.92;14.30;;;;;;;17.22;57.08;94487.59;5108367;28;20240;-80
2022/11/04 10:00:25;;;;;;;19.35;8.90;;;;;;;17.61;56.28;94483.34;5109299;28;20671;-80
2022/11/04 10:03:04;;;;;;;21.55;9.40;;;;;;;17.49;56.25;94478.13;5109885;28;20227;-79
2022/11/04 10:05:42;;;;;;;16.30;8.57;;;;;;;17.40;55.74;94472.91;5109134;28;20593;-76
2022/11/04 10:08:29;;;;;;;23.00;9.88;;;;;;;17.32;56.14;94474.00;5109830;28;20230;-81
2022/11/04 10:11:04;;;;;;;20.88;8.00;;;;;;;17.44;55.40;94472.97;5109349;28;20228;-78
2022/11/04 10:13:43;;;;;;;19.55;8.68;;;;;;;17.64;55.60;94466.16;5109713;28;20554;-82
2022/11/04 10:16:24;;;;;;;17.13;9.00;;;;;;;17.55;55.24;94460.16;5109208;28;20193;-80
2022/11/04 10:19:16;;;;;;;19.17;9.73;;;;;;;17.81;54.43;94453.00;5109600;28;20222;-81
2022/11/04 10:21:49;;;;;;;24.15;7.82;;;;;;;17.87;54.42;94446.03;5122499;27;20197;-82
2022/11/04 10:24:30;;;;;;;28.25;13.77;;;;;;;17.62;54.99;94451.25;5109076;28;20197;-81
2022/11/04 10:27:03;;;;;;;24.15;13.07;;;;;;;17.41;55.78;94446.31;5109402;28;20290;-80
2022/11/04 10:29:37;;;;;;;30.25;14.18;;;;;;;17.11;56.89;94443.63;5108556;28;20251;-80
2022/11/04 10:32:14;;;;;;;26.50;13.27;;;;;;;17.13;56.76;94419.41;5109085;28;20457;-79
2022/11/04 10:34:49;;;;;;;26.67;12.70;;;;;;;17.02;57.45;94424.78;5109106;28;20648;-79
2022/11/04 10:37:15;;;;;;;24.35;13.07;;;;;;;17.16;57.22;94412.41;5109430;28;20213;-80
2022/11/04 10:39:45;;;;;;;22.20;12.73;;;;;;;16.85;57.54;94414.41;5109208;28;20228;-79
2022/11/04 10:42:14;;;;;;;27.67;13.68;;;;;;;17.16;56.54;94410.47;5108698;28;20205;-79
2022/11/04 10:44:41;;;;;;;25.02;13.18;;;;;;;17.23;56.22;94405.06;5122198;28;20640;-80
2022/11/04 10:47:18;;;;;;;27.35;13.45;;;;;;;17.47;55.66;94409.22;5108144;28;20210;-80
2022/11/04 10:49:57;;;;;;;20.58;12.60;;;;;;;17.80;54.66;94391.16;5108051;28;20672;-81
2022/11/04 10:52:24;;;;;;;25.33;12.23;;;;;;;17.85;54.14;94388.06;5107849;28;20255;-82
2022/11/04 10:54:52;;;;;;;21.92;12.90;;;;;;;17.58;54.86;94390.94;5102187;28;20223;-83
2022/11/04 10:57:22;;;;;;;19.92;12.20;;;;;;;17.83;54.52;94379.44;5088757;28;20627;-81
2022/11/04 10:59:53;;;;;;;25.45;13.48;;;;;;;17.89;54.62;94372.44;5102565;28;20201;-81
2022/11/04 11:02:44;;;;;;;22.95;11.73;;;;;;;17.77;54.68;94357.84;5099828;27;20198;-80
2022/11/04 11:05:22;;;;;;;22.27;12.70;;;;;;;17.69;55.45;94369.94;5099819;28;20243;-80
2022/11/04 11:07:51;;;;;;;24.60;12.43;;;;;;;17.44;54.96;94357.94;5108798;28;20815;-84
2022/11/04 11:10:22;;;;;;;21.23;12.57;;;;;;;17.27;55.59;94353.88;5109384;28;20206;-80
2022/11/04 11:12:55;;;;;;;21.95;11.60;;;;;;;17.40;55.50;94357.13;5108982;28;20278;-80
2022/11/04 11:15:41;;;;;;;26.92;12.55;;;;;;;17.55;54.90;94345.13;5108582;28;20246;-79
2022/11/04 11:18:14;;;;;;;20.67;12.02;;;;;;;17.60;54.58;94344.00;5108550;28;20286;-78
2022/11/04 11:20:43;;;;;;;25.15;12.90;;;;;;;17.61;54.66;94340.88;5109410;28;20318;-78
2022/11/04 11:23:33;;;;;;;23.48;12.30;;;;;;;17.58;54.30;94330.69;5108516;28;20189;-79
2022/11/04 11:26:02;;;;;;;25.38;12.63;;;;;;;17.87;54.05;94326.22;5098052;28;20198;-82
2022/11/04 11:28:36;;;;;;;21.00;11.85;;;;;;;17.94;53.46;94315.31;5109207;28;20275;-78
2022/11/04 11:31:07;;;;;;;22.10;12.20;;;;;;;17.90;53.27;94300.03;5108643;28;20229;-80
2022/11/04 11:33:37;;;;;;;23.77;11.45;;;;;;;17.94;53.56;94303.56;5109161;28;20311;-79
2022/11/04 11:36:11;;;;;;;23.63;11.45;;;;;;;18.00;52.99;94297.34;5124757;27;20229;-78
2022/11/04 11:38:39;;;;;;;20.17;10.57;;;;;;;17.89;53.17;94290.22;5093585;27;20222;-81
2022/11/04 11:41:10;;;;;;;17.98;10.23;;;;;;;18.00;52.91;94280.09;5092280;28;20612;-82
2022/11/04 11:43:42;;;;;;;19.67;11.20;;;;;;;18.18;52.04;94270.00;5099512;28;20201;-81
2022/11/04 11:46:10;;;;;;;18.10;10.30;;;;;;;18.36;51.44;94281.84;5125133;27;20189;-79
2022/11/04 11:48:42;;;;;;;19.15;10.02;;;;;;;18.39;50.93;94280.31;5091813;28;20237;-79
2022/11/04 11:51:13;;;;;;;23.17;10.85;;;;;;;18.16;51.67;94266.88;5108383;28;20210;-79
2022/11/04 11:53:57;;;;;;;14.40;6.75;;;;;;;18.28;51.60;94266.53;5111967;28;20289;-79
2022/11/04 11:56:30;;;;;;;14.18;6.63;;;;;;;18.34;51.65;94258.72;5092214;28;20613;-78
2022/11/04 11:59:08;;;;;;;14.60;6.32;;;;;;;18.18;51.99;94253.56;5105948;28;20221;-79
2022/11/04 12:01:51;;;;;;;17.50;9.73;;;;;;;18.19;52.50;94252.38;5112332;28;20201;-79
2022/11/04 12:04:21;;;;;;;18.20;9.75;;;;;;;18.17;52.81;94257.50;5112734;28;20225;-80
2022/11/04 12:06:55;;;;;;;18.42;9.63;;;;;;;18.21;51.90;94246.53;5111884;28;20687;-80
2022/11/04 12:09:40;;;;;;;18.63;7.43;;;;;;;18.24;52.39;94245.75;5125788;27;20675;-79
2022/11/04 12:12:27;;;;;;;17.13;9.50;;;;;;;18.27;52.02;94242.25;5113622;27;20258;-80
2022/11/04 12:15:24;;;;;;;17.77;8.85;;;;;;;18.26;51.68;94238.72;5108863;27;20638;-79
2022/11/04 12:18:06;;;;;;;19.45;9.73;;;;;;;18.23;51.66;94239.50;5090876;28;20214;-78
2022/11/04 12:20:45;;;;;;;17.98;9.10;;;;;;;18.31;51.35;94235.59;5113949;27;20208;-77